Time;durP1;ratioP1;P1;durP2;ratioP2;P2;SDS_P1;SDS_P2;PMS_P1;PMS_P2;Temp;Humidity;BMP_temperature;BMP_pressure;BME280_temperature;BME280_humidity;BME280_pressure;Samples;Min_cycle;Max_cycle;Signal;HPM_P1;HPM_P2
2022/08/23 00:01:59;;;;;;;20.52;18.45;;;;;;;16.74;100.00;99437.72;5091860;28;20032;-79
2022/08/23 00:04:31;;;;;;;23.90;21.50;;;;;;;16.74;100.00;99443.00;5093140;28;20036;-79
2022/08/23 00:06:56;;;;;;;19.80;17.77;;;;;;;16.72;100.00;99435.16;5091888;28;20027;-79
2022/08/23 00:09:25;;;;;;;20.42;18.38;;;;;;;16.63;100.00;99423.56;5092869;28;20032;-79
2022/08/23 00:12:13;;;;;;;21.33;19.30;;;;;;;16.70;100.00;99434.47;5093037;28;20020;-78
2022/08/23 00:14:43;;;;;;;22.13;19.98;;;;;;;16.71;100.00;99441.38;5092739;28;20139;-79
2022/08/23 00:17:10;;;;;;;23.23;18.63;;;;;;;16.67;100.00;99438.16;5092897;28;20407;-79
2022/08/23 00:19:36;;;;;;;19.45;17.70;;;;;;;16.67;100.00;99438.16;5092962;28;20476;-79
2022/08/23 00:22:02;;;;;;;21.40;19.38;;;;;;;16.67;100.00;99430.25;5091354;28;20030;-79
2022/08/23 00:24:28;;;;;;;19.98;17.58;;;;;;;16.66;100.00;99433.00;5091145;28;20379;-79
2022/08/23 00:26:55;;;;;;;21.50;19.00;;;;;;;16.66;100.00;99438.28;5092804;28;20058;-79
2022/08/23 00:29:23;;;;;;;20.35;18.23;;;;;;;16.61;100.00;99420.22;5091811;28;20052;-79
2022/08/23 00:31:49;;;;;;;20.15;17.88;;;;;;;16.65;100.00;99424.28;5091520;28;20035;-79
2022/08/23 00:34:15;;;;;;;18.52;16.48;;;;;;;16.64;100.00;99419.13;5092521;28;20020;-79
2022/08/23 00:36:41;;;;;;;19.50;17.48;;;;;;;16.66;100.00;99418.06;5092945;28;20020;-79
2022/08/23 00:39:06;;;;;;;19.20;17.30;;;;;;;16.73;100.00;99426.38;5091019;28;20542;-79
2022/08/23 00:41:34;;;;;;;21.88;17.80;;;;;;;16.76;100.00;99428.75;5092869;28;20093;-79
2022/08/23 00:49:36;;;;;;;17.95;16.15;;;;;;;16.70;100.00;99408.16;5092623;28;20502;-79
2022/08/23 00:52:07;;;;;;;16.95;15.35;;;;;;;16.67;100.00;99403.13;5092246;28;20081;-79
2022/08/23 00:54:35;;;;;;;16.88;15.23;;;;;;;16.75;100.00;99413.09;5092441;28;20111;-79
2022/08/23 00:57:06;;;;;;;17.92;14.90;;;;;;;16.73;100.00;99410.59;5092315;28;20024;-79
2022/08/23 00:59:32;;;;;;;16.65;14.88;;;;;;;16.70;100.00;99406.38;5092218;28;20161;-79
2022/08/23 01:01:59;;;;;;;17.60;15.13;;;;;;;16.67;100.00;99396.06;5092047;28;20028;-79
2022/08/23 01:04:29;;;;;;;19.02;15.70;;;;;;;16.70;100.00;99398.47;5090378;28;20032;-79
2022/08/23 01:07:01;;;;;;;17.10;15.50;;;;;;;16.65;100.00;99392.72;5091958;28;20357;-79
2022/08/23 01:09:27;;;;;;;17.50;15.43;;;;;;;16.67;100.00;99389.97;5090585;28;20118;-78
2022/08/23 01:11:52;;;;;;;16.52;14.82;;;;;;;16.71;100.00;99400.16;5090876;28;20146;-79
2022/08/23 01:14:28;;;;;;;17.55;15.77;;;;;;;16.71;100.00;99404.56;5090487;28;20060;-79
2022/08/23 01:17:18;;;;;;;18.80;16.80;;;;;;;16.71;100.00;99407.19;5092495;28;20024;-79
2022/08/23 01:19:55;;;;;;;17.70;15.82;;;;;;;16.61;100.00;99390.47;5092236;28;20389;-79
2022/08/23 01:22:40;;;;;;;18.73;16.77;;;;;;;16.70;100.00;99410.78;5092110;28;20491;-78
2022/08/23 01:25:09;;;;;;;18.90;16.92;;;;;;;16.68;100.00;99415.31;5091933;28;20020;-78
2022/08/23 01:27:36;;;;;;;17.75;15.95;;;;;;;16.59;100.00;99406.31;5092134;28;20028;-78
2022/08/23 01:30:04;;;;;;;16.15;14.45;;;;;;;16.66;100.00;99415.44;5090487;28;20135;-79
2022/08/23 01:32:31;;;;;;;19.17;16.35;;;;;;;16.62;100.00;99414.00;5091499;28;20512;-79
2022/08/23 01:34:56;;;;;;;18.63;16.63;;;;;;;16.59;100.00;99413.38;5091845;28;20548;-79
2022/08/23 01:37:22;;;;;;;16.55;14.85;;;;;;;16.60;100.00;99418.53;5091861;28;20103;-79
2022/08/23 01:39:47;;;;;;;16.65;14.95;;;;;;;16.61;100.00;99425.47;5091698;28;20034;-79
2022/08/23 01:42:12;;;;;;;14.98;13.50;;;;;;;16.62;100.00;99421.88;5094395;28;20024;-79
2022/08/23 01:44:38;;;;;;;19.20;15.60;;;;;;;16.63;100.00;99418.28;5095982;28;20060;-79
2022/08/23 01:47:04;;;;;;;17.02;15.23;;;;;;;16.56;100.00;99414.47;5095962;28;20052;-79
2022/08/23 01:49:31;;;;;;;15.98;13.93;;;;;;;16.64;100.00;99416.50;5095424;28;20034;-79
2022/08/23 01:51:57;;;;;;;17.38;13.93;;;;;;;16.59;100.00;99413.38;5095796;28;20028;-78
2022/08/23 01:54:22;;;;;;;16.55;14.82;;;;;;;16.59;100.00;99423.91;5095468;28;20058;-78
2022/08/23 01:56:48;;;;;;;18.73;13.90;;;;;;;16.52;100.00;99401.63;5095677;28;20040;-78
2022/08/23 01:59:13;;;;;;;17.13;14.05;;;;;;;16.52;100.00;99401.63;5095242;28;20078;-79
2022/08/23 02:01:38;;;;;;;15.25;12.85;;;;;;;16.58;100.00;99415.19;5095474;28;20031;-79
2022/08/23 02:04:04;;;;;;;15.25;13.20;;;;;;;16.53;100.00;99406.81;5094215;28;20541;-79
2022/08/23 02:06:30;;;;;;;15.30;12.50;;;;;;;16.53;100.00;99414.69;5093854;28;20031;-79
2022/08/23 02:09:01;;;;;;;15.15;12.02;;;;;;;16.50;100.00;99408.81;5095224;28;20418;-78
2022/08/23 02:11:36;;;;;;;23.10;12.68;;;;;;;16.52;100.00;99422.66;5095227;28;20608;-79
2022/08/23 02:14:07;;;;;;;14.13;12.13;;;;;;;16.48;100.00;99432.59;5095272;28;20028;-79
2022/08/23 02:16:43;;;;;;;12.93;11.52;;;;;;;16.47;100.00;99438.78;5093856;28;20074;-79
2022/08/23 02:19:10;;;;;;;13.77;11.23;;;;;;;16.51;100.00;99460.44;5095301;28;20055;-79
2022/08/23 02:21:37;;;;;;;14.05;11.68;;;;;;;16.51;100.00;99513.00;5094974;28;20062;-79
2022/08/23 02:24:05;;;;;;;11.68;10.57;;;;;;;16.44;100.00;99517.91;5095137;28;20448;-79
2022/08/23 02:26:31;;;;;;;13.15;11.70;;;;;;;16.43;100.00;99518.81;5094986;28;20461;-78
2022/08/23 02:28:56;;;;;;;14.52;12.82;;;;;;;16.54;100.00;99536.47;5095042;28;20172;-79
2022/08/23 02:31:22;;;;;;;14.05;12.60;;;;;;;16.50;100.00;99530.59;5094634;28;20056;-78
2022/08/23 02:33:47;;;;;;;13.45;12.23;;;;;;;16.52;100.00;99526.06;5094846;28;20498;-79
2022/08/23 02:36:13;;;;;;;13.10;11.80;;;;;;;16.56;100.00;99513.50;5093209;28;20024;-79
2022/08/23 02:38:39;;;;;;;13.90;10.35;;;;;;;16.56;100.00;99510.88;5094920;28;20414;-79
2022/08/23 02:41:04;;;;;;;13.55;11.70;;;;;;;16.56;100.00;99508.25;5093825;28;20036;-79
2022/08/23 02:43:30;;;;;;;14.10;11.05;;;;;;;16.59;100.00;99513.28;5094357;28;20024;-79
2022/08/23 02:45:55;;;;;;;14.88;11.02;;;;;;;16.54;100.00;99508.38;5093346;28;20035;-78
2022/08/23 02:48:21;;;;;;;14.27;11.57;;;;;;;16.53;100.00;99511.97;5092989;28;20020;-79
2022/08/23 02:50:46;;;;;;;15.98;11.23;;;;;;;16.57;100.00;99520.47;5094384;28;20028;-79
2022/08/23 02:53:12;;;;;;;13.75;11.40;;;;;;;16.51;100.00;99507.75;5094484;28;20020;-79
2022/08/23 02:55:37;;;;;;;14.95;10.30;;;;;;;16.51;100.00;99513.84;5094741;28;20028;-79
2022/08/23 02:58:04;;;;;;;15.85;11.30;;;;;;;16.57;100.00;99516.03;5094889;28;20024;-79
2022/08/23 03:00:30;;;;;;;18.13;12.07;;;;;;;16.48;100.00;99490.44;5094384;28;20028;-79
2022/08/23 03:02:56;;;;;;;15.13;11.52;;;;;;;16.51;100.00;99476.22;5094554;28;20035;-79
2022/08/23 03:05:21;;;;;;;11.75;10.57;;;;;;;16.35;100.00;99474.72;5094177;28;20028;-79
2022/08/23 03:07:47;;;;;;;13.35;11.10;;;;;;;16.37;100.00;99485.97;5094881;28;20089;-78
2022/08/23 03:10:12;;;;;;;12.75;11.35;;;;;;;16.31;100.00;99480.31;5094429;28;20055;-79
2022/08/23 03:12:37;;;;;;;12.50;10.35;;;;;;;16.30;100.00;99481.25;5093252;28;20077;-79
2022/08/23 03:15:05;;;;;;;12.52;11.23;;;;;;;16.30;100.00;99484.72;5094547;28;20024;-79
2022/08/23 03:17:30;;;;;;;13.90;11.00;;;;;;;16.33;100.00;99488.91;5094288;28;20034;-79
2022/08/23 03:19:55;;;;;;;15.95;11.27;;;;;;;16.27;100.00;99484.13;5094201;28;20024;-79
2022/08/23 03:22:22;;;;;;;12.43;11.13;;;;;;;16.19;100.00;99476.78;5093577;28;20085;-79
2022/08/23 03:24:47;;;;;;;11.50;10.23;;;;;;;16.15;100.00;99468.28;5094766;28;20032;-79
2022/08/23 03:27:12;;;;;;;12.60;11.40;;;;;;;16.22;100.00;99476.53;5094574;28;20109;-79
2022/08/23 03:29:38;;;;;;;13.02;11.65;;;;;;;16.18;100.00;99464.56;5094673;28;20048;-79
2022/08/23 03:32:04;;;;;;;13.38;11.20;;;;;;;16.17;100.00;99457.66;5093755;28;20059;-79
2022/08/23 03:34:30;;;;;;;13.02;10.93;;;;;;;16.18;100.00;99470.69;5093345;28;20028;-80
2022/08/23 03:36:56;;;;;;;11.18;10.13;;;;;;;16.12;100.00;99465.03;5102487;28;20024;-80
2022/08/23 03:39:22;;;;;;;12.05;10.95;;;;;;;16.18;100.00;99482.97;5104957;28;20035;-79
2022/08/23 03:41:47;;;;;;;11.18;10.18;;;;;;;16.18;100.00;99494.34;5104164;28;20028;-79
2022/08/23 03:44:13;;;;;;;11.60;10.40;;;;;;;16.17;100.00;99487.41;5099111;28;20042;-79
2022/08/23 03:46:38;;;;;;;10.98;9.98;;;;;;;16.19;100.00;99480.25;5094040;28;20030;-79
2022/08/23 03:49:04;;;;;;;11.52;10.45;;;;;;;16.12;100.00;99473.75;5092005;28;20028;-79
2022/08/23 03:51:33;;;;;;;11.18;9.80;;;;;;;16.18;100.00;99485.59;5093333;28;20024;-78
2022/08/23 03:53:58;;;;;;;9.13;8.32;;;;;;;16.15;100.00;99486.69;5093592;28;20358;-79
2022/08/23 03:56:33;;;;;;;9.35;8.40;;;;;;;16.11;100.00;99481.75;5091608;28;20126;-79
2022/08/23 03:59:02;;;;;;;9.57;8.70;;;;;;;16.18;100.00;99472.47;5092842;28;20032;-80
2022/08/23 04:01:28;;;;;;;10.67;9.67;;;;;;;16.21;100.00;99478.34;5091420;28;20051;-81
2022/08/23 04:03:53;;;;;;;9.82;9.02;;;;;;;16.14;100.00;99473.66;5092406;28;20059;-79
2022/08/23 04:06:19;;;;;;;9.73;8.80;;;;;;;16.20;100.00;99494.22;5092717;28;20027;-79
2022/08/23 04:08:44;;;;;;;9.60;8.60;;;;;;;16.10;100.00;99474.84;5093201;28;20061;-79
2022/08/23 04:11:12;;;;;;;11.48;9.13;;;;;;;16.11;100.00;99464.19;5092701;28;20481;-79
2022/08/23 04:13:38;;;;;;;9.63;8.70;;;;;;;16.18;100.00;99477.72;5092840;28;20031;-79
2022/08/23 04:16:05;;;;;;;10.18;9.25;;;;;;;16.13;100.00;99456.19;5092787;28;20035;-79
2022/08/23 04:18:31;;;;;;;9.65;8.65;;;;;;;16.18;100.00;99462.81;5092887;28;20097;-80
2022/08/23 04:21:01;;;;;;;9.75;8.80;;;;;;;16.19;100.00;99466.28;5091458;28;20035;-79
2022/08/23 04:23:26;;;;;;;9.98;9.00;;;;;;;16.17;100.00;99455.03;5092738;28;20028;-79
2022/08/23 04:25:53;;;;;;;9.80;8.80;;;;;;;16.18;100.00;99456.69;5092846;28;20054;-80
2022/08/23 04:28:20;;;;;;;10.30;9.25;;;;;;;16.18;100.00;99460.19;5091269;28;20024;-80
2022/08/23 04:30:45;;;;;;;10.23;9.20;;;;;;;16.20;100.00;99460.06;5092333;28;20047;-80
2022/08/23 04:33:11;;;;;;;9.98;8.93;;;;;;;16.17;100.00;99447.97;5091674;28;20042;-79
2022/08/23 04:35:36;;;;;;;9.93;8.93;;;;;;;16.15;100.00;99451.69;5092586;28;20034;-79
2022/08/23 04:38:02;;;;;;;27.08;16.83;;;;;;;16.16;100.00;99451.56;5092633;28;20476;-80
2022/08/23 04:43:11;;;;;;;9.10;7.85;;;;;;;16.17;100.00;99457.66;5092660;28;20069;-80
2022/08/23 04:45:37;;;;;;;9.40;7.57;;;;;;;16.18;100.00;99461.94;5092026;28;20115;-80
2022/08/23 04:48:03;;;;;;;12.02;8.25;;;;;;;16.13;100.00;99461.47;5092589;28;20107;-80
2022/08/23 04:50:29;;;;;;;8.68;7.70;;;;;;;16.16;100.00;99472.59;5092190;28;20110;-80
2022/08/23 04:52:54;;;;;;;8.70;7.80;;;;;;;16.14;100.00;99469.25;5092390;28;20073;-79
2022/08/23 04:55:19;;;;;;;7.95;7.15;;;;;;;16.17;100.00;99482.13;5090831;28;20032;-79
2022/08/23 04:57:45;;;;;;;8.48;7.72;;;;;;;16.20;100.00;99483.72;5090534;28;20068;-79
2022/08/23 05:00:12;;;;;;;8.38;7.32;;;;;;;16.14;100.00;99481.53;5092398;28;20452;-80
2022/08/23 05:02:38;;;;;;;8.70;7.90;;;;;;;16.11;100.00;99471.25;5092237;28;20158;-79
2022/08/23 05:05:04;;;;;;;8.52;7.68;;;;;;;16.13;100.00;99472.81;5092438;28;20567;-79
2022/08/23 05:07:30;;;;;;;9.20;8.30;;;;;;;16.17;100.00;99492.66;5092039;28;20016;-79
2022/08/23 05:09:56;;;;;;;10.77;8.32;;;;;;;16.17;100.00;99491.81;5090935;28;20130;-79
2022/08/23 05:12:21;;;;;;;9.60;8.70;;;;;;;16.19;100.00;99492.56;5092069;28;20028;-79
2022/08/23 05:14:47;;;;;;;10.90;9.80;;;;;;;16.16;100.00;99495.41;5092086;28;20035;-79
2022/08/23 05:17:12;;;;;;;11.98;10.73;;;;;;;16.15;100.00;99496.34;5092355;28;20035;-79
2022/08/23 05:19:37;;;;;;;11.65;10.48;;;;;;;16.13;100.00;99500.88;5091625;28;20028;-79
2022/08/23 05:22:03;;;;;;;11.15;10.05;;;;;;;16.19;100.00;99513.56;5092142;28;20028;-79
2022/08/23 05:24:28;;;;;;;10.63;9.73;;;;;;;16.15;100.00;99501.59;5091673;28;20030;-79
2022/08/23 05:26:54;;;;;;;11.60;10.40;;;;;;;16.17;100.00;99508.41;5092065;28;20473;-79
2022/08/23 05:29:20;;;;;;;12.25;10.98;;;;;;;16.26;100.00;99517.41;5090265;28;20075;-78
2022/08/23 05:31:46;;;;;;;11.43;10.32;;;;;;;16.20;100.00;99502.94;5091855;28;20020;-78
2022/08/23 05:34:11;;;;;;;12.57;11.00;;;;;;;16.25;100.00;99509.66;5091888;28;20044;-78
2022/08/23 05:36:36;;;;;;;12.07;10.77;;;;;;;16.27;100.00;99500.72;5091627;28;20098;-78
2022/08/23 05:39:04;;;;;;;13.73;12.43;;;;;;;16.37;100.00;99517.50;5092108;28;20024;-78
2022/08/23 05:41:30;;;;;;;13.05;11.15;;;;;;;16.37;100.00;99520.13;5091544;28;20437;-78
2022/08/23 05:43:55;;;;;;;12.35;11.05;;;;;;;16.44;100.00;99521.38;5091625;28;20115;-78
2022/08/23 05:46:21;;;;;;;11.52;10.32;;;;;;;16.42;100.00;99517.16;5091895;28;20418;-78
2022/08/23 05:48:49;;;;;;;12.38;10.75;;;;;;;16.53;100.00;99522.47;5091465;28;20496;-78
2022/08/23 05:51:17;;;;;;;11.68;10.48;;;;;;;16.57;100.00;99529.19;5091723;28;20025;-77
2022/08/23 05:53:44;;;;;;;12.95;11.65;;;;;;;16.54;100.00;99513.63;5091405;28;20031;-78
2022/08/23 05:56:16;;;;;;;13.15;11.93;;;;;;;16.59;100.00;99519.38;5091481;28;20073;-78
2022/08/23 05:58:43;;;;;;;12.65;11.43;;;;;;;16.64;100.00;99522.53;5091701;28;20114;-78
2022/08/23 06:01:09;;;;;;;14.38;11.88;;;;;;;16.63;100.00;99525.25;5091515;28;20078;-77
2022/08/23 06:03:35;;;;;;;13.30;12.00;;;;;;;16.62;100.00;99524.44;5091667;28;20029;-78
2022/08/23 06:06:01;;;;;;;14.57;13.07;;;;;;;16.61;100.00;99532.44;5091818;28;20030;-77
2022/08/23 06:08:27;;;;;;;14.48;12.45;;;;;;;16.54;100.00;99528.56;5091072;28;20032;-76
2022/08/23 06:11:07;;;;;;;15.02;13.07;;;;;;;16.55;100.00;99533.72;5091958;28;20031;-77
2022/08/23 06:13:34;;;;;;;16.90;13.93;;;;;;;16.62;100.00;99542.00;5090293;28;20036;-77
2022/08/23 06:15:59;;;;;;;14.32;12.90;;;;;;;16.54;100.00;99534.66;5091609;28;20024;-77
2022/08/23 06:18:26;;;;;;;16.40;14.68;;;;;;;16.59;100.00;99545.69;5091776;28;20388;-78
2022/08/23 06:21:06;;;;;;;16.60;13.65;;;;;;;16.60;100.00;99544.75;5091573;28;20065;-77
2022/08/23 06:23:32;;;;;;;16.55;14.07;;;;;;;16.62;100.00;99548.09;5091659;28;20028;-77
2022/08/23 06:25:58;;;;;;;15.75;13.57;;;;;;;16.59;100.00;99550.94;5091699;28;20502;-77
2022/08/23 06:28:24;;;;;;;15.32;13.70;;;;;;;16.68;100.00;99547.63;5094866;28;20103;-77
2022/08/23 06:30:53;;;;;;;14.75;13.35;;;;;;;16.63;100.00;99535.78;5093572;28;20139;-78
2022/08/23 06:33:19;;;;;;;15.63;13.85;;;;;;;16.68;100.00;99549.44;5095127;28;20020;-77
2022/08/23 06:35:46;;;;;;;14.80;13.30;;;;;;;16.61;100.00;99540.34;5094723;28;20028;-78
2022/08/23 06:38:12;;;;;;;15.20;13.48;;;;;;;16.65;100.00;99542.63;5072199;28;20032;-77
2022/08/23 06:40:37;;;;;;;16.27;14.60;;;;;;;16.75;100.00;99560.38;5072441;28;20044;-77
2022/08/23 06:43:03;;;;;;;13.98;12.50;;;;;;;16.73;100.00;99562.25;5055700;28;20048;-77
2022/08/23 06:45:29;;;;;;;13.85;12.13;;;;;;;16.79;100.00;99567.94;5072000;28;20071;-77
2022/08/23 06:47:54;;;;;;;16.33;13.15;;;;;;;16.79;100.00;99567.94;5072296;28;20060;-78
2022/08/23 06:50:20;;;;;;;13.40;12.05;;;;;;;16.74;100.00;99564.81;5072357;28;20033;-77
2022/08/23 06:52:49;;;;;;;13.30;12.00;;;;;;;16.74;100.00;99567.44;5072570;28;20045;-77
2022/08/23 06:55:15;;;;;;;16.73;11.90;;;;;;;16.81;100.00;99575.69;5055575;28;20401;-77
2022/08/23 06:57:40;;;;;;;14.10;12.80;;;;;;;16.78;100.00;99566.25;5072204;28;20046;-77
2022/08/23 07:00:07;;;;;;;14.52;12.35;;;;;;;16.78;100.00;99558.38;5055091;28;20036;-78
2022/08/23 07:02:33;;;;;;;18.05;13.90;;;;;;;16.80;100.00;99555.63;5071995;28;20428;-78
2022/08/23 07:04:58;;;;;;;16.08;11.70;;;;;;;16.89;100.00;99565.44;5072001;28;20055;-78
2022/08/23 07:07:24;;;;;;;12.60;11.15;;;;;;;16.92;100.00;99546.81;5055128;28;20020;-78
2022/08/23 07:09:49;;;;;;;18.83;14.15;;;;;;;17.09;100.00;99563.97;5087596;28;20040;-78
2022/08/23 07:12:15;;;;;;;17.52;13.45;;;;;;;17.26;100.00;99562.69;5094115;28;20065;-78
2022/08/23 07:14:41;;;;;;;17.08;13.50;;;;;;;17.41;100.00;99554.50;5093261;28;20027;-78
2022/08/23 07:17:08;;;;;;;17.65;13.18;;;;;;;17.74;100.00;99552.00;5094483;28;20024;-78
2022/08/23 07:19:34;;;;;;;14.40;13.02;;;;;;;17.89;100.00;99549.03;5092799;28;20096;-77
2022/08/23 07:22:01;;;;;;;18.63;13.18;;;;;;;17.94;100.00;99561.84;5094647;28;20106;-77
2022/08/23 07:24:27;;;;;;;17.27;14.10;;;;;;;17.92;100.00;99555.88;5093928;28;20598;-77
2022/08/23 07:26:52;;;;;;;18.35;14.15;;;;;;;17.83;100.00;99557.44;5093727;28;20056;-77
2022/08/23 07:29:19;;;;;;;17.40;13.27;;;;;;;17.83;100.00;99561.88;5093963;28;20024;-78
2022/08/23 07:31:55;;;;;;;16.63;13.73;;;;;;;17.85;100.00;99565.19;5092541;28;20058;-77
2022/08/23 07:34:21;;;;;;;16.00;14.40;;;;;;;17.87;100.00;99565.94;5093619;28;20042;-78
2022/08/23 07:36:49;;;;;;;16.10;14.38;;;;;;;17.91;100.00;99559.47;5090086;28;20051;-78
2022/08/23 07:39:15;;;;;;;17.83;14.05;;;;;;;17.80;100.00;99562.09;5093117;28;20112;-77
2022/08/23 07:41:41;;;;;;;16.55;14.45;;;;;;;17.78;100.00;99567.50;5093783;28;20024;-78
2022/08/23 07:44:08;;;;;;;17.40;14.20;;;;;;;17.82;100.00;99568.91;5054455;28;20046;-77
2022/08/23 07:46:35;;;;;;;15.52;13.93;;;;;;;17.80;100.00;99575.25;5071046;28;20462;-77
2022/08/23 07:49:01;;;;;;;16.60;14.60;;;;;;;17.80;100.00;99577.91;5054283;28;20435;-77
2022/08/23 07:51:29;;;;;;;17.45;13.93;;;;;;;17.81;100.00;99582.19;5070923;28;20047;-77
2022/08/23 07:53:55;;;;;;;15.52;13.95;;;;;;;17.77;100.00;99580.75;5071095;28;20032;-77
2022/08/23 07:56:21;;;;;;;16.15;14.52;;;;;;;17.71;100.00;99571.53;5070860;28;20041;-78
2022/08/23 07:58:46;;;;;;;16.70;15.00;;;;;;;17.69;100.00;99573.41;5071016;28;20086;-77
2022/08/23 08:01:15;;;;;;;19.38;15.32;;;;;;;17.73;100.00;99582.75;5071258;28;20029;-77
2022/08/23 08:03:42;;;;;;;17.08;15.18;;;;;;;17.70;100.00;99593.56;5055879;28;20028;-77
2022/08/23 08:06:15;;;;;;;16.75;14.98;;;;;;;17.71;100.00;99587.31;5073093;28;20476;-78
2022/08/23 08:08:41;;;;;;;17.20;15.40;;;;;;;17.76;100.00;99579.94;5070723;28;20496;-78
2022/08/23 08:11:09;;;;;;;19.20;15.80;;;;;;;17.89;100.00;99580.66;5070810;28;20219;-77
2022/08/23 08:13:37;;;;;;;24.45;16.83;;;;;;;18.03;100.00;99581.38;5070728;28;20044;-77
2022/08/23 08:16:03;;;;;;;19.70;16.83;;;;;;;18.15;100.00;99580.41;5053796;28;20033;-77
2022/08/23 08:18:28;;;;;;;16.60;14.60;;;;;;;18.31;100.00;99587.94;5070467;28;20062;-78
2022/08/23 08:20:54;;;;;;;18.80;15.07;;;;;;;18.43;100.00;99589.59;5075694;28;20043;-78
2022/08/23 08:23:19;;;;;;;18.58;14.75;;;;;;;18.48;100.00;99581.31;5093207;28;20085;-77
2022/08/23 08:25:45;;;;;;;21.65;16.30;;;;;;;18.58;100.00;99596.28;5093356;28;20054;-77
2022/08/23 08:28:11;;;;;;;20.20;15.98;;;;;;;18.51;100.00;99589.81;5094609;28;20514;-78
2022/08/23 08:30:37;;;;;;;17.60;15.63;;;;;;;18.58;100.00;99612.13;5095066;28;20150;-79
2022/08/23 08:33:02;;;;;;;19.38;15.20;;;;;;;18.53;100.00;99608.16;5094499;28;20468;-78
2022/08/23 08:35:27;;;;;;;19.00;14.88;;;;;;;18.49;100.00;99612.00;5093579;28;20173;-78
2022/08/23 08:37:53;;;;;;;17.00;15.07;;;;;;;18.49;100.00;99609.34;5091735;28;20027;-79
2022/08/23 08:40:28;;;;;;;15.27;13.68;;;;;;;18.44;100.00;99591.25;5093138;28;20032;-79
2022/08/23 08:43:15;;;;;;;16.55;13.60;;;;;;;18.73;100.00;99610.06;5093034;28;20024;-78
2022/08/23 08:45:57;;;;;;;18.38;14.63;;;;;;;19.04;100.00;99604.91;5093372;28;20032;-79
2022/08/23 08:48:26;;;;;;;14.15;12.75;;;;;;;19.43;100.00;99601.59;5093265;28;20024;-80
2022/08/23 08:50:59;;;;;;;16.33;13.10;;;;;;;19.71;100.00;99616.94;5091433;28;20028;-78
2022/08/23 08:53:33;;;;;;;14.85;13.45;;;;;;;19.69;100.00;99614.44;5091921;28;20042;-78
2022/08/23 08:56:03;;;;;;;14.98;13.48;;;;;;;19.60;100.00;99628.41;5092803;28;20445;-78
2022/08/23 08:58:53;;;;;;;14.82;12.80;;;;;;;19.45;100.00;99623.41;5093213;28;20032;-78
2022/08/23 09:01:20;;;;;;;14.40;12.80;;;;;;;19.43;100.00;99622.72;5091065;28;20379;-78
2022/08/23 09:03:47;;;;;;;13.80;12.38;;;;;;;19.36;100.00;99624.19;5091743;28;20078;-78
2022/08/23 09:06:42;;;;;;;17.77;12.52;;;;;;;19.33;100.00;99635.00;5091798;28;20372;-77
2022/08/23 09:09:35;;;;;;;15.95;13.27;;;;;;;19.29;100.00;99633.59;5091921;28;20043;-78
2022/08/23 09:12:09;;;;;;;15.85;14.15;;;;;;;19.29;100.00;99624.84;5091503;28;20365;-78
2022/08/23 09:14:48;;;;;;;14.38;13.05;;;;;;;19.26;100.00;99627.75;5092108;28;20024;-78
2022/08/23 09:17:29;;;;;;;13.90;12.50;;;;;;;19.25;100.00;99629.53;5091847;28;20495;-78
2022/08/23 09:19:59;;;;;;;14.55;13.02;;;;;;;19.34;100.00;99625.28;5091524;28;20104;-78
2022/08/23 09:22:34;;;;;;;15.25;13.73;;;;;;;19.47;100.00;99638.31;5091674;28;20085;-78
2022/08/23 09:24:59;;;;;;;14.73;13.20;;;;;;;19.39;100.00;99631.03;5091555;28;20520;-78
2022/08/23 09:27:25;;;;;;;15.40;13.98;;;;;;;19.33;100.00;99628.91;5091764;28;20107;-78
2022/08/23 09:29:57;;;;;;;15.27;13.68;;;;;;;19.35;100.00;99637.53;5089871;28;20048;-78
2022/08/23 09:32:36;;;;;;;14.50;13.10;;;;;;;19.43;100.00;99638.56;5091705;28;20512;-78
2022/08/23 09:35:15;;;;;;;14.00;12.65;;;;;;;19.53;100.00;99630.72;5091360;28;20115;-78
2022/08/23 09:37:58;;;;;;;14.60;13.20;;;;;;;19.40;100.00;99620.34;5091615;28;20465;-78
2022/08/23 09:40:24;;;;;;;13.90;12.48;;;;;;;19.43;100.00;99641.22;5090329;28;20492;-78
2022/08/23 09:43:10;;;;;;;15.38;13.63;;;;;;;19.32;100.00;99632.50;5091524;28;20020;-78
2022/08/23 09:45:38;;;;;;;14.57;13.10;;;;;;;19.40;100.00;99633.53;5091787;28;20062;-78
2022/08/23 09:48:06;;;;;;;16.08;14.32;;;;;;;19.39;100.00;99620.47;5091681;28;20077;-78
2022/08/23 09:50:53;;;;;;;14.75;13.32;;;;;;;19.49;100.00;99636.38;5091666;28;20060;-78
2022/08/23 09:53:26;;;;;;;14.95;13.30;;;;;;;19.58;100.00;99633.78;5091724;28;20039;-78
2022/08/23 09:55:56;;;;;;;14.75;13.07;;;;;;;19.52;100.00;99617.63;5091038;28;20085;-78
2022/08/23 09:58:33;;;;;;;15.80;14.20;;;;;;;19.58;100.00;99638.25;5091855;28;20554;-79
2022/08/23 10:01:18;;;;;;;15.70;13.98;;;;;;;19.50;100.00;99643.34;5091190;28;20085;-79
2022/08/23 10:03:45;;;;;;;15.80;14.15;;;;;;;19.45;100.00;99638.44;5093951;28;20523;-78
2022/08/23 10:06:16;;;;;;;14.57;13.07;;;;;;;19.55;100.00;99644.66;5095620;28;20024;-78
2022/08/23 10:08:54;;;;;;;14.27;12.93;;;;;;;19.62;100.00;99644.97;5100153;28;20048;-78
2022/08/23 10:11:24;;;;;;;16.33;14.63;;;;;;;19.68;100.00;99636.56;5115037;28;20054;-79
2022/08/23 10:13:51;;;;;;;15.90;14.13;;;;;;;19.75;100.00;99642.97;5119918;28;20016;-79
2022/08/23 10:16:39;;;;;;;14.82;13.13;;;;;;;19.87;100.00;99639.28;5117853;28;20020;-81
2022/08/23 10:19:12;;;;;;;15.65;14.07;;;;;;;20.10;100.00;99649.69;5106599;28;20024;-79
2022/08/23 10:21:40;;;;;;;15.00;13.48;;;;;;;20.19;100.00;99646.28;5107926;28;20024;-80
2022/08/23 10:24:18;;;;;;;14.88;13.43;;;;;;;20.35;100.00;99651.03;5121874;28;20031;-80
2022/08/23 10:30:14;;;;;;;12.93;11.82;;;;;;;20.91;100.00;99661.13;5095541;28;20101;-80
2022/08/23 10:32:48;;;;;;;15.13;13.57;;;;;;;21.05;100.00;99659.88;5095665;28;20024;-79
2022/08/23 10:35:19;;;;;;;14.60;12.07;;;;;;;21.13;100.00;99660.03;5094775;28;20020;-78
2022/08/23 10:37:47;;;;;;;14.45;10.88;;;;;;;21.21;100.00;99664.63;5094704;28;20108;-78
2022/08/23 10:40:27;;;;;;;11.73;10.52;;;;;;;21.18;100.00;99671.03;5094926;28;20038;-79
2022/08/23 10:43:11;;;;;;;10.25;9.23;;;;;;;21.13;100.00;99658.22;5094962;28;20028;-79
2022/08/23 10:45:38;;;;;;;9.60;8.65;;;;;;;21.14;100.00;99649.28;5095375;28;20507;-79
2022/08/23 10:48:07;;;;;;;10.23;9.00;;;;;;;21.20;100.00;99665.63;5093443;28;20028;-79
2022/08/23 10:50:43;;;;;;;10.20;8.45;;;;;;;21.21;100.00;99654.88;5094966;28;20032;-80
2022/08/23 10:53:14;;;;;;;10.13;9.13;;;;;;;21.21;100.00;99654.88;5094556;28;20031;-80
2022/08/23 10:56:06;;;;;;;10.50;9.50;;;;;;;21.22;100.00;99666.31;5095677;28;20383;-81
2022/08/23 10:58:59;;;;;;;9.20;8.23;;;;;;;21.16;100.00;99654.47;5095974;28;20024;-80
2022/08/23 11:01:38;;;;;;;9.85;8.55;;;;;;;21.35;100.00;99658.94;5095134;28;20071;-81
2022/08/23 11:04:13;;;;;;;7.95;7.25;;;;;;;21.46;100.00;99652.66;5094689;28;20030;-79
2022/08/23 11:06:44;;;;;;;9.70;8.35;;;;;;;21.43;100.00;99659.91;5094182;28;20092;-81
2022/08/23 11:09:16;;;;;;;8.55;7.82;;;;;;;21.20;100.00;99666.44;5092888;28;20097;-80
2022/08/23 11:12:17;;;;;;;9.13;8.27;;;;;;;20.87;100.00;99663.22;5093137;28;20411;-79
2022/08/23 11:15:02;;;;;;;8.77;7.95;;;;;;;20.57;100.00;99661.47;5094969;28;20108;-80
2022/08/23 11:17:41;;;;;;;9.43;8.55;;;;;;;20.58;100.00;99667.59;5095292;28;20543;-79
2022/08/23 11:20:11;;;;;;;9.23;8.43;;;;;;;20.42;100.00;99660.97;5092658;28;20488;-80
2022/08/23 11:22:55;;;;;;;10.00;8.90;;;;;;;20.39;100.00;99671.84;5093061;28;20027;-82
2022/08/23 11:25:20;;;;;;;9.95;8.95;;;;;;;20.37;100.00;99667.63;5093695;28;20031;-78
2022/08/23 11:27:46;;;;;;;9.57;8.30;;;;;;;20.39;100.00;99660.38;5093988;28;20032;-79
2022/08/23 11:30:30;;;;;;;8.55;7.57;;;;;;;20.53;100.00;99659.22;5094506;28;20087;-78
2022/08/23 11:32:59;;;;;;;9.15;8.05;;;;;;;20.63;100.00;99646.84;5094828;28;20115;-79